Time;durP1;ratioP1;P1;durP2;ratioP2;P2;SDS_P1;SDS_P2;PMS_P1;PMS_P2;Temp;Humidity;BMP_temperature;BMP_pressure;BME280_temperature;BME280_humidity;BME280_pressure;Samples;Min_cycle;Max_cycle;Signal;HPM_P1;HPM_P2
2021/06/07 00:02:02;;;;;;;6.47;5.00;;;15.60;99.90;;;;;;5089556;28;20778;-81
2021/06/07 00:04:29;;;;;;;11.80;5.78;;;15.50;99.90;;;;;;5089143;28;20376;-81
2021/06/07 00:06:57;;;;;;;41.17;8.57;;;15.50;99.90;;;;;;5089442;28;20878;-82
2021/06/07 00:09:23;;;;;;;67.78;12.35;;;15.40;99.90;;;;;;5089463;28;20368;-81
2021/06/07 00:11:59;;;;;;;125.35;17.55;;;15.40;99.90;;;;;;5089446;28;20865;-80
2021/06/07 00:14:31;;;;;;;80.80;13.03;;;15.40;99.90;;;;;;5089489;28;20486;-81
2021/06/07 00:16:57;;;;;;;75.65;13.05;;;15.30;99.90;;;;;;5088959;28;20433;-81
2021/06/07 00:19:25;;;;;;;48.20;9.77;;;15.30;99.90;;;;;;5089163;28;20941;-82
2021/06/07 00:21:51;;;;;;;31.80;8.17;;;;;;;;;;5088902;28;20420;-84
2021/06/07 00:24:18;;;;;;;18.05;6.07;;;;;;;;;;5070952;28;20377;-80
2021/06/07 00:26:45;;;;;;;20.35;6.28;;;;;;;;;;5089078;28;20866;-82
2021/06/07 00:29:11;;;;;;;10.82;5.25;;;;;;;;;;5089362;28;20372;-82
2021/06/07 00:31:37;;;;;;;16.80;5.88;;;;;;;;;;5088780;28;20373;-82
2021/06/07 00:34:04;;;;;;;15.38;5.45;;;;;;;;;;5089005;28;20364;-83
2021/06/07 00:36:30;;;;;;;8.57;5.15;;;;;;;;;;5088760;28;20368;-81
2021/06/07 00:38:56;;;;;;;6.47;4.80;;;;;;;;;;5070693;28;20730;-82
2021/06/07 00:41:23;;;;;;;7.57;4.63;;;;;;;;;;5089553;28;20372;-80
2021/06/07 00:43:56;;;;;;;8.30;5.07;;;;;;;;;;5095537;28;20377;-80
2021/06/07 00:46:22;;;;;;;6.63;4.80;;;;;;;;;;5095358;28;20400;-80
2021/06/07 00:48:48;;;;;;;7.97;5.13;;;;;;;;;;5095706;28;20379;-80
2021/06/07 00:51:14;;;;;;;7.82;5.30;;;;;;;;;;5095629;28;20368;-79
2021/06/07 00:53:40;;;;;;;4.88;4.35;;;;;;;;;;5095461;28;20403;-82
2021/06/07 00:56:09;;;;;;;6.97;4.85;;;;;;;;;;5095234;28;20375;-80
2021/06/07 00:58:36;;;;;;;7.43;5.15;;;;;;;;;;5095520;28;20400;-81
2021/06/07 01:01:04;;;;;;;5.93;5.10;;;;;;;;;;5095325;28;20376;-83
2021/06/07 01:03:30;;;;;;;5.67;5.07;;;;;;;;;;5095442;28;20357;-81
2021/06/07 01:05:57;;;;;;;5.43;4.80;;;;;;;;;;5095500;28;20479;-82
2021/06/07 01:08:23;;;;;;;5.35;4.95;;;;;;;;;;5076771;28;20376;-81
2021/06/07 01:10:49;;;;;;;5.97;4.78;;;;;;;;;;5095395;28;20422;-81
2021/06/07 01:13:15;;;;;;;7.57;5.35;;;;;;;;;;5093907;28;20360;-80
2021/06/07 01:15:42;;;;;;;5.05;4.55;;;;;;;;;;5094687;28;20368;-81
2021/06/07 01:18:08;;;;;;;6.20;5.40;;;;;;;;;;5095269;28;20391;-81
2021/06/07 01:20:35;;;;;;;6.32;4.93;;;;;;;;;;5076703;28;20391;-82
2021/06/07 01:23:01;;;;;;;6.68;5.70;;;;;;;;;;5095040;28;20379;-83
2021/06/07 01:25:34;;;;;;;6.03;5.32;;;;;;;;;;5095458;28;20376;-81
2021/06/07 01:28:01;;;;;;;5.63;5.13;;;;;;;;;;5095015;28;20376;-82
2021/06/07 01:30:28;;;;;;;6.60;5.60;;;;;;;;;;5095110;28;20383;-80
2021/06/07 01:32:54;;;;;;;9.57;5.85;;;;;;;;;;5095304;28;20886;-80
2021/06/07 01:35:20;;;;;;;7.37;5.57;;;;;;;;;;5095166;28;20524;-79
2021/06/07 01:37:49;;;;;;;5.57;5.07;;;;;;;;;;5095094;28;20372;-80
2021/06/07 01:40:17;;;;;;;6.78;5.15;;;;;;;;;;5076817;28;20420;-81
2021/06/07 01:42:43;;;;;;;7.22;5.63;;;;;;;;;;5076613;28;20861;-81
2021/06/07 01:45:11;;;;;;;7.53;6.15;;;;;;;;;;5095134;28;20734;-79
2021/06/07 01:47:37;;;;;;;6.10;5.50;;;;;;;;;;5094855;28;20461;-81
2021/06/07 01:50:05;;;;;;;7.38;5.40;;;;;;;;;;5094842;28;20369;-82
2021/06/07 01:52:31;;;;;;;6.22;5.47;;;;;;;;;;5094828;28;20372;-80
2021/06/07 01:54:57;;;;;;;6.03;5.43;;;;;;;;;;5090497;28;20372;-81
2021/06/07 01:57:23;;;;;;;5.72;5.13;;;;;;;;;;5091962;28;20374;-83
2021/06/07 01:59:49;;;;;;;5.82;5.20;;;;;;;;;;5073692;28;20734;-81
2021/06/07 02:02:15;;;;;;;6.00;5.40;;;;;;;;;;5091694;28;20385;-80
2021/06/07 02:04:41;;;;;;;5.60;4.97;;;;;;;;;;5073374;28;20411;-83
2021/06/07 02:07:07;;;;;;;5.67;5.17;;;;;;;;;;5091697;28;20403;-79
2021/06/07 02:09:33;;;;;;;6.63;5.43;;;;;;;;;;5073402;28;20750;-82
2021/06/07 02:11:59;;;;;;;6.30;5.80;;;;;;;;;;5073435;28;20372;-82
2021/06/07 02:14:25;;;;;;;6.53;5.75;;;;;;;;;;5091463;28;20442;-81
2021/06/07 02:16:51;;;;;;;9.60;5.60;;;;;;;;;;5091622;28;20369;-82
2021/06/07 02:19:17;;;;;;;6.43;5.47;;;;;;;;;;5073272;28;20851;-84
2021/06/07 02:21:43;;;;;;;7.40;5.25;;;;;;;;;;5091227;28;20396;-83
2021/06/07 02:24:10;;;;;;;6.57;5.47;;;;;;;;;;5091423;28;20395;-82
2021/06/07 02:26:36;;;;;;;6.03;5.43;;;;;;;;;;5090984;28;20479;-80
2021/06/07 02:29:02;;;;;;;6.25;5.63;;;;;;;;;;5091237;28;20447;-80
2021/06/07 02:31:28;;;;;;;6.33;5.47;;;;;;;;;;5091296;28;20779;-79
2021/06/07 02:33:55;;;;;;;5.90;5.30;;;;;;;;;;5091186;28;20842;-81
2021/06/07 02:36:23;;;;;;;7.38;5.97;;;;;;;;;;5091040;28;20877;-83
2021/06/07 02:38:49;;;;;;;6.65;5.70;;;;;;;;;;5091397;28;20956;-83
2021/06/07 02:41:15;;;;;;;10.98;6.32;;;;;;;;;;5090966;28;20372;-82
2021/06/07 02:43:41;;;;;;;8.07;6.60;;;;;;;;;;5090998;28;20734;-80
2021/06/07 02:46:07;;;;;;;7.57;6.50;;;;;;;;;;5090875;28;20412;-79
2021/06/07 02:48:33;;;;;;;9.13;6.30;;;;;;;;;;5090869;28;20368;-81
2021/06/07 02:51:00;;;;;;;6.38;5.78;;;;;;;;;;5090958;28;20391;-80
2021/06/07 02:53:26;;;;;;;7.70;6.05;;;;;;;;;;5090660;28;21004;-82
2021/06/07 02:55:53;;;;;;;7.82;6.25;;;;;;;;;;5090512;28;20398;-83
2021/06/07 02:58:20;;;;;;;9.32;5.68;;;;;;;;;;5090402;28;20391;-81
2021/06/07 03:00:48;;;;;;;7.10;5.60;;;;;;;;;;5090703;28;20375;-80
2021/06/07 03:03:14;;;;;;;9.27;6.00;;;;;;;;;;5072400;28;20870;-80
2021/06/07 03:05:41;;;;;;;6.55;5.88;;;;;;;;;;5090178;28;20373;-80
2021/06/07 03:08:08;;;;;;;6.67;5.73;;;;;;;;;;5090579;28;20368;-80
2021/06/07 03:10:34;;;;;;;6.38;5.30;;;;;;;;;;5090429;28;20924;-82
2021/06/07 03:13:00;;;;;;;7.38;5.80;;;;;;;;;;5090198;28;20383;-81
2021/06/07 03:15:27;;;;;;;6.75;5.85;;;;;;;;;;5090357;28;20479;-81
2021/06/07 03:17:54;;;;;;;6.53;5.70;;;;;;;;;;5090414;28;20369;-82
2021/06/07 03:20:23;;;;;;;6.38;5.45;;;;;;;;;;5090092;28;20917;-80
2021/06/07 03:22:49;;;;;;;6.30;5.70;;;;;;;;;;5072026;28;20376;-83
2021/06/07 03:25:15;;;;;;;7.47;6.00;;;;;;;;;;5071837;28;20383;-80
2021/06/07 03:27:41;;;;;;;7.13;5.77;;;;;;;;;;5089933;28;20870;-80
2021/06/07 03:30:09;;;;;;;6.10;5.50;;;;;;;;;;5090097;28;20924;-80
2021/06/07 03:32:35;;;;;;;9.30;6.20;;;;;;;;;;5090004;28;20408;-83
2021/06/07 03:35:01;;;;;;;7.07;5.82;;;;;;;;;;5090022;28;20383;-82
2021/06/07 03:37:27;;;;;;;6.45;5.72;;;;;;;;;;5090019;28;20373;-80
2021/06/07 03:39:53;;;;;;;7.07;6.32;;;;;;;;;;5089826;28;20364;-81
2021/06/07 03:42:19;;;;;;;6.47;5.55;;;;;;;;;;5089732;28;20922;-82
2021/06/07 03:44:45;;;;;;;6.70;5.85;;;;;;;;;;5071375;28;20403;-82
2021/06/07 03:47:11;;;;;;;6.97;6.15;;;;;;;;;;5089329;28;20409;-79
2021/06/07 03:49:37;;;;;;;5.90;5.43;;;;;;;;;;5089383;28;20364;-83
2021/06/07 03:52:03;;;;;;;6.68;6.00;;;;;;;;;;5071437;28;20380;-80
2021/06/07 03:54:29;;;;;;;7.20;5.95;;;;;;;;;;5089513;28;20945;-82
2021/06/07 03:56:55;;;;;;;6.63;6.03;;;;;;;;;;5089651;28;20933;-81
2021/06/07 03:59:21;;;;;;;6.80;6.10;;;;;;;;;;5089694;28;20373;-83
2021/06/07 04:01:47;;;;;;;6.57;5.70;;;;;;;;;;5089565;28;20408;-79
2021/06/07 04:04:13;;;;;;;7.15;5.88;;;;;;;;;;5089374;28;20365;-83
2021/06/07 04:06:39;;;;;;;7.80;5.82;;;;;;;;;;5089324;28;20724;-83
2021/06/07 04:09:05;;;;;;;6.47;5.43;;;;;;;;;;5089314;28;20475;-81
2021/06/07 04:11:31;;;;;;;6.40;5.60;;;;;;;;;;5089309;28;20452;-79
2021/06/07 04:13:57;;;;;;;5.70;5.20;;;;;;;;;;5089295;28;20523;-81
2021/06/07 04:16:23;;;;;;;16.13;6.00;;;;;;;;;;5070194;28;20381;-83
2021/06/07 04:18:49;;;;;;;6.30;5.70;;;;;;;;;;5089211;28;20475;-82
2021/06/07 04:21:15;;;;;;;5.72;5.22;;;;;;;;;;5088850;28;20384;-82
2021/06/07 04:23:41;;;;;;;6.13;5.53;;;;;;;;;;5070793;28;20885;-83
2021/06/07 04:26:07;;;;;;;5.57;5.07;;;;;;;;;;5071098;28;20405;-82
2021/06/07 04:28:35;;;;;;;7.88;5.57;;;;;;;;;;5089265;28;20372;-81
2021/06/07 04:31:01;;;;;;;8.68;5.72;;;;;;;;;;5088958;28;20372;-82
2021/06/07 04:33:27;;;;;;;5.65;5.05;;;;;;;;;;5088911;28;20368;-83
2021/06/07 04:35:53;;;;;;;22.55;7.05;;;;;;;;;;5089108;28;20447;-81
2021/06/07 04:38:19;;;;;;;9.85;5.75;;;;;;;;;;5088875;28;20369;-83
2021/06/07 04:40:45;;;;;;;7.27;5.40;;;;;;;;;;5089087;28;20381;-81
2021/06/07 04:43:13;;;;;;;6.25;5.47;;;;;;;;;;5088787;28;20361;-82
2021/06/07 04:45:40;;;;;;;6.90;4.50;;;;;;;;;;5088950;28;20371;-80
2021/06/07 04:48:06;;;;;;;5.90;5.30;;;;;;;;;;5070618;28;20368;-81
2021/06/07 04:50:33;;;;;;;7.75;4.97;;;;;;;;;;5088963;28;20392;-81
2021/06/07 04:53:00;;;;;;;5.30;4.82;;;;;;;;;;5070607;28;20415;-82
2021/06/07 04:55:33;;;;;;;6.70;5.28;;;;;;;;;;5088874;28;20387;-82
2021/06/07 04:58:01;;;;;;;5.35;4.70;;;;;;;;;;5088727;28;20360;-81
2021/06/07 05:00:28;;;;;;;5.72;4.55;;;;;;;;;;5088582;28;20388;-80
2021/06/07 05:02:54;;;;;;;6.95;4.63;;;;;;;;;;5088726;28;20368;-83
2021/06/07 05:05:21;;;;;;;6.20;4.60;;;;;;;;;;5087495;28;20471;-81
2021/06/07 05:07:47;;;;;;;5.07;4.53;;;;;;;;;;5088359;28;20392;-82
2021/06/07 05:10:15;;;;;;;7.03;4.63;;;;;;;;;;5069401;28;20392;-82
2021/06/07 05:12:41;;;;;;;5.70;4.25;;;;;;;;;;5088306;28;20373;-80
2021/06/07 05:15:08;;;;;;;5.00;4.40;;;;;;;;;;5088521;28;20365;-82
2021/06/07 05:17:34;;;;;;;4.88;4.18;;;;;;;;;;5069640;28;20800;-80
2021/06/07 05:20:01;;;;;;;4.97;4.20;;;;;;;;;;5078126;28;20384;-82
2021/06/07 05:22:27;;;;;;;4.78;4.22;;;;;;;;;;5088309;28;20880;-82
2021/06/07 05:24:54;;;;;;;6.88;4.10;;;;;;;;;;5088415;28;20468;-83
2021/06/07 05:27:20;;;;;;;5.82;4.07;;;;;;;;;;5088469;28;20400;-81
2021/06/07 05:29:46;;;;;;;5.22;4.35;;;;;;;;;;5091799;28;20423;-83
2021/06/07 05:32:12;;;;;;;4.68;3.95;;;;;;;;;;5072757;28;20388;-84
2021/06/07 05:34:38;;;;;;;7.85;4.15;;;;;;;;;;5092676;28;20450;-81
2021/06/07 05:37:05;;;;;;;6.75;4.40;;;;;;;;;;5092452;28;20726;-83
2021/06/07 05:39:31;;;;;;;4.68;3.92;;;;;;;;;;5092348;28;20414;-81
2021/06/07 05:41:57;;;;;;;7.65;4.03;;;;;;;;;;5092417;28;20384;-82
2021/06/07 05:44:22;;;;;;;7.77;4.40;;;;;;;;;;5092082;28;20368;-84
2021/06/07 05:46:51;;;;;;;7.43;4.22;;;;;;;;;;5092039;28;20404;-84
2021/06/07 05:49:17;;;;;;;6.60;4.10;;;;;;;;;;5092129;28;20846;-84
2021/06/07 05:51:44;;;;;;;9.27;3.90;;;;;;;;;;5092343;28;20383;-80
2021/06/07 05:54:10;;;;;;;5.30;3.78;;;;;;;;;;5091761;28;20460;-80
2021/06/07 05:56:39;;;;;;;4.40;3.60;;;;;;;;;;5090899;28;20426;-85
2021/06/07 05:59:05;;;;;;;5.63;3.70;;;;;;;;;;5090529;28;20384;-84
2021/06/07 06:01:31;;;;;;;6.65;3.70;;;;;;;;;;5073415;28;20369;-85
2021/06/07 06:03:58;;;;;;;4.80;3.85;;;;;;;;;;5091830;28;20368;-86
2021/06/07 06:06:24;;;;;;;6.60;4.00;;;;;;;;;;5091532;28;20449;-84
2021/06/07 06:08:51;;;;;;;6.78;3.42;;;;;;;;;;5091661;28;20374;-86
2021/06/07 06:11:18;;;;;;;6.88;3.83;;;;;;;;;;5073350;28;20739;-81
2021/06/07 06:13:44;;;;;;;7.75;4.07;;;;;;;;;;5091469;28;20376;-87
2021/06/07 06:16:10;;;;;;;22.73;4.53;;;;;;;;;;5091820;28;20379;-81
2021/06/07 06:18:37;;;;;;;10.03;3.70;;;;;;;;;;5091430;28;20368;-82
2021/06/07 06:21:04;;;;;;;6.88;3.70;;;;;;;;;;5091267;28;20474;-84
2021/06/07 06:23:30;;;;;;;6.95;3.65;;;;;;;;;;5091292;28;20462;-81
2021/06/07 06:25:56;;;;;;;4.75;3.35;;;;;;;;;;5091125;28;20419;-80
2021/06/07 06:28:22;;;;;;;3.53;3.10;;;;;;;;;;5091017;28;20376;-81
2021/06/07 06:30:48;;;;;;;5.07;3.10;;;;;;;;;;5072690;28;20398;-82
2021/06/07 06:33:14;;;;;;;4.80;3.20;;;;;;;;;;5091143;28;20446;-83
2021/06/07 06:35:40;;;;;;;5.35;3.50;;;;;;;;;;5091212;28;20846;-81
2021/06/07 06:38:06;;;;;;;5.95;3.40;;;;;;;;;;5090814;28;20442;-85
2021/06/07 06:40:33;;;;;;;4.50;3.20;;;;;;;;;;5072016;28;20945;-84
2021/06/07 06:43:00;;;;;;;4.95;2.97;;;;;;;;;;5090124;28;20723;-84
2021/06/07 06:45:26;;;;;;;7.75;3.22;;;;;;;;;;5090833;28;20434;-82
2021/06/07 06:47:56;;;;;;;5.40;3.10;;;;;;;;;;5089836;28;20482;-78
2021/06/07 06:50:23;;;;;;;5.05;3.10;;;;;;;;;;5090657;28;20384;-79
2021/06/07 06:52:50;;;;;;;4.13;2.75;;;;;;;;;;5072678;28;20430;-81
2021/06/07 06:55:16;;;;;;;5.05;2.83;;;;;;;;;;5072556;28;20889;-80
2021/06/07 06:57:42;;;;;;;5.28;3.15;;;;;;;;;;5090881;28;20360;-82
2021/06/07 07:00:09;;;;;;;5.13;3.20;;;;;;;;;;5090285;28;20928;-83
2021/06/07 07:02:35;;;;;;;4.15;2.85;;;;;;;;;;5072278;28;20423;-82
2021/06/07 07:05:01;;;;;;;4.00;2.90;;;;;;;;;;5090920;28;20372;-82
2021/06/07 07:07:27;;;;;;;6.23;3.40;;;;;;;;;;5090688;28;20947;-82
2021/06/07 07:09:54;;;;;;;6.85;3.40;;;;;;;;;;5091129;28;20403;-81
2021/06/07 07:12:26;;;;;;;4.88;3.17;;;;;;;;;;5090265;28;20380;-85
2021/06/07 07:14:52;;;;;;;5.23;2.73;;;;;;;;;;5072595;28;20416;-82
2021/06/07 07:17:18;;;;;;;5.03;3.15;;;;;;;;;;5090372;28;20866;-84
2021/06/07 07:19:48;;;;;;;5.45;3.30;;;;;;;;;;5087679;28;20388;-84
2021/06/07 07:22:17;;;;;;;5.57;3.30;;;;;;;;;;5089074;28;20399;-83
2021/06/07 07:24:44;;;;;;;6.03;3.30;;;;;;;;;;5089674;28;20377;-86
2021/06/07 07:27:14;;;;;;;6.05;3.20;;;;;;;;;;5069682;28;20405;-83
2021/06/07 07:29:41;;;;;;;3.23;2.80;;;;;;;;;;5069862;28;20366;-80
2021/06/07 07:32:07;;;;;;;5.57;3.08;;;;;;;;;;5071159;28;20384;-86
2021/06/07 07:34:34;;;;;;;5.50;3.15;;;;;;;;;;5071485;28;20365;-85
2021/06/07 07:37:00;;;;;;;7.65;3.38;;;;;;;;;;5089136;28;20383;-87
2021/06/07 07:39:27;;;;;;;5.07;3.42;;;;;;;;;;5088784;28;20385;-82
2021/06/07 07:41:53;;;;;;;6.03;3.10;;;;;;;;;;5088589;28;20478;-85
2021/06/07 07:44:19;;;;;;;5.85;2.95;;;;;;;;;;5089479;28;20396;-86
2021/06/07 07:46:45;;;;;;;4.45;3.50;;;;;;;;;;5089777;28;20392;-84
2021/06/07 07:49:12;;;;;;;6.13;3.43;;;;;;;;;;5089076;28;20387;-83
2021/06/07 07:51:38;;;;;;;3.97;3.10;;;;;;;;;;5088238;28;20365;-84
2021/06/07 07:54:05;;;;;;;6.45;3.30;;;;;;;;;;5089533;28;20407;-83
2021/06/07 07:56:31;;;;;;;6.72;3.40;;;;;;;;;;5089806;28;20459;-81
2021/06/07 07:58:57;;;;;;;5.78;3.20;;;;;;;;;;5089865;28;20448;-91
2021/06/07 08:01:23;;;;;;;5.18;3.40;;;;;;;;;;5071373;28;20442;-83
2021/06/07 08:03:49;;;;;;;4.90;2.90;;;;;;;;;;5089829;28;20376;-85
2021/06/07 08:06:15;;;;;;;6.38;3.63;;;;;;;;;;5088792;28;20404;-82
2021/06/07 08:08:41;;;;;;;6.70;3.30;;;;;;;;;;5088892;28;20391;-83
2021/06/07 08:11:07;;;;;;;5.07;2.97;;;;;;;;;;5088847;28;20376;-80
2021/06/07 08:13:33;;;;;;;5.65;3.22;;;;;;;;;;5089270;28;20452;-84
2021/06/07 08:15:59;;;;;;;4.85;2.85;;;;;;;;;;5087994;28;20762;-81
2021/06/07 08:18:25;;;;;;;3.97;3.00;;;;;;;;;;5086780;28;20369;-80
2021/06/07 08:20:51;;;;;;;3.90;3.10;;;;;;;;;;5070444;28;20388;-85
2021/06/07 08:23:17;;;;;;;5.00;3.10;;;;;;;;;;5088772;28;20459;-84
2021/06/07 08:25:43;;;;;;;4.40;3.25;;;;;;;;;;5086687;28;20453;-84
2021/06/07 08:28:10;;;;;;;4.10;2.60;;;;;;;;;;5087682;28;20408;-86
2021/06/07 08:30:36;;;;;;;4.22;2.72;;;;;;;;;;5088013;28;20984;-82
2021/06/07 08:33:03;;;;;;;4.30;2.83;;;;;;;;;;5087666;28;20481;-81
2021/06/07 08:35:30;;;;;;;4.60;3.00;;;;;;;;;;5088892;28;20376;-82
2021/06/07 08:37:57;;;;;;;6.50;2.90;;;;;;;;;;5093707;28;21219;-85
2021/06/07 08:40:25;;;;;;;4.10;3.10;;;;;;;;;;5098092;28;20467;-82
2021/06/07 08:42:51;;;;;;;7.45;3.13;;;;;;;;;;5102518;28;20373;-82
2021/06/07 08:45:20;;;;;;;4.35;3.00;;;;;;;;;;5088592;28;20376;-88
2021/06/07 08:47:47;;;;;;;4.90;3.17;;;;;;;;;;5088535;28;20407;-84
2021/06/07 08:50:14;;;;;;;3.95;3.10;;;;;;;;;;5088908;28;20386;-84
2021/06/07 08:52:43;;;;;;;4.30;3.03;;;;;;;;;;5088957;28;20365;-81
2021/06/07 08:55:09;;;;;;;3.30;3.00;;;;;;;;;;5088356;28;20466;-82
2021/06/07 08:57:40;;;;;;;5.25;3.13;;;;;;;;;;5070572;28;20376;-85
2021/06/07 09:00:06;;;;;;;4.38;3.15;;;;;;;;;;5078206;28;20391;-85
2021/06/07 09:02:36;;;;;;;3.50;3.20;;;;;;;;;;5071156;28;20730;-81
2021/06/07 09:05:03;;;;;;;5.40;3.43;;;;;;;;;;5092979;28;20728;-77
2021/06/07 09:07:30;;;;;;;4.60;2.92;;;;;;;;;;5092973;28;20902;-82
2021/06/07 09:10:09;;;;;;;6.07;3.50;;;;;;;;;;5093092;28;20367;-81
2021/06/07 09:12:36;;;;;;;5.22;3.10;;;;;;;;;;5092558;28;20704;-82
2021/06/07 09:15:02;;;;;;;4.20;3.10;;;;;;;;;;5092745;28;20376;-84
2021/06/07 09:17:28;;;;;;;6.63;3.20;;;;;;;;;;5092935;28;20380;-84
2021/06/07 09:20:14;;;;;;;5.53;3.25;;;;;;;;;;5092741;28;20852;-87
2021/06/07 09:22:48;;;;;;;10.25;3.13;;;;;;;;;;5073978;28;20912;-84
2021/06/07 09:25:16;;;;;;;6.65;3.20;;;25.30;77.40;;;;;;5092095;28;20368;-79
2021/06/07 09:28:02;;;;;;;6.22;3.58;;;25.10;79.50;;;;;;5074131;28;20886;-81
2021/06/07 09:30:36;;;;;;;4.97;3.08;;;25.20;79.20;;;;;;5092047;28;20375;-78
2021/06/07 09:33:40;;;;;;;5.43;3.13;;;25.10;80.90;;;;;;5048949;28;20378;-83
2021/06/07 09:36:06;;;;;;;7.57;3.22;;;24.90;79.30;;;;;;5049829;28;20381;-85
2021/06/07 09:38:32;;;;;;;3.43;3.13;;;24.90;81.90;;;;;;5085463;28;20757;-81
2021/06/07 09:41:02;;;;;;;3.83;3.40;;;25.10;80.70;;;;;;5092079;28;20384;-82
2021/06/07 09:43:47;;;;;;;6.43;3.38;;;25.40;82.20;;;;;;5091741;28;20387;-80
2021/06/07 09:46:13;;;;;;;4.90;3.20;;;25.50;82.30;;;;;;5091751;28;20408;-83
2021/06/07 09:48:39;;;;;;;13.03;3.93;;;25.50;77.30;;;;;;5092041;28;21068;-82
2021/06/07 09:51:05;;;;;;;4.50;2.88;;;25.30;78.00;;;;;;5091931;28;20376;-82
2021/06/07 09:53:48;;;;;;;5.28;3.40;;;25.20;78.00;;;;;;5091742;28;20373;-84
2021/06/07 09:56:15;;;;;;;5.25;3.40;;;25.20;75.30;;;;;;5073198;28;20384;-82
2021/06/07 09:58:41;;;;;;;5.05;3.50;;;25.30;79.00;;;;;;5090228;28;20416;-85
2021/06/07 10:01:13;;;;;;;4.13;2.92;;;25.50;79.50;;;;;;5072805;28;20463;-82
2021/06/07 10:03:44;;;;;;;3.97;3.08;;;25.70;81.90;;;;;;5095468;28;20370;-84
2021/06/07 10:06:26;;;;;;;5.03;2.67;;;25.90;75.80;;;;;;5078029;28;20411;-81
2021/06/07 10:08:57;;;;;;;4.47;3.20;;;25.80;76.00;;;;;;5111620;28;20355;-83
2021/06/07 10:11:35;;;;;;;3.53;3.23;;;25.90;76.10;;;;;;5111755;28;20375;-81
2021/06/07 10:14:07;;;;;;;7.10;3.50;;;25.70;75.10;;;;;;5093152;28;20379;-84
2021/06/07 10:16:33;;;;;;;5.05;3.03;;;25.60;78.60;;;;;;5092846;28;20759;-82
2021/06/07 10:19:04;;;;;;;4.22;3.13;;;25.80;79.60;;;;;;5111600;28;20401;-86
2021/06/07 10:21:30;;;;;;;5.27;3.23;;;25.90;74.20;;;;;;5111235;28;20466;-85
2021/06/07 10:23:56;;;;;;;7.67;3.20;;;25.80;74.90;;;;;;5111712;28;20375;-81
2021/06/07 10:26:22;;;;;;;3.70;3.17;;;25.80;75.10;;;;;;5108067;28;20396;-81
2021/06/07 10:28:53;;;;;;;5.53;3.33;;;25.90;75.50;;;;;;5082565;28;20397;-83
2021/06/07 10:31:20;;;;;;;9.00;3.73;;;26.10;77.20;;;;;;5091027;28;20365;-84
2021/06/07 10:34:03;;;;;;;7.72;3.30;;;26.40;78.50;;;;;;5090398;28;20376;-85
2021/06/07 10:36:36;;;;;;;4.00;3.00;;;26.30;80.70;;;;;;5090724;28;20388;-85
2021/06/07 10:39:14;;;;;;;5.43;3.17;;;26.50;81.00;;;;;;5090736;28;20364;-82
2021/06/07 10:41:41;;;;;;;6.13;3.67;;;26.60;79.70;;;;;;5090890;28;20383;-81
2021/06/07 10:44:07;;;;;;;5.83;3.47;;;26.60;78.00;;;;;;5072100;28;20431;-83
2021/06/07 10:46:36;;;;;;;8.65;3.63;;;26.60;82.60;;;;;;5090822;28;20400;-85
2021/06/07 10:49:23;;;;;;;3.77;3.47;;;26.70;80.40;;;;;;5087306;28;20890;-83
2021/06/07 10:52:06;;;;;;;5.20;3.67;;;26.50;76.20;;;;;;5090026;28;20402;-85
2021/06/07 10:54:34;;;;;;;4.90;3.47;;;26.50;76.80;;;;;;5090145;28;20376;-82
2021/06/07 10:57:21;;;;;;;4.25;3.08;;;26.30;82.60;;;;;;5089902;28;20468;-83
2021/06/07 10:59:49;;;;;;;4.38;3.20;;;26.40;73.80;;;;;;5090082;28;20396;-83
2021/06/07 11:02:16;;;;;;;6.32;3.42;;;26.30;73.30;;;;;;5070004;28;20388;-82
2021/06/07 11:04:42;;;;;;;4.38;3.40;;;26.10;76.70;;;;;;5071566;28;20448;-82
2021/06/07 11:07:12;;;;;;;4.45;3.25;;;26.10;77.10;;;;;;5089452;28;20436;-81
2021/06/07 11:10:17;;;;;;;4.72;3.58;;;26.00;76.50;;;;;;5089939;28;20831;-82
2021/06/07 11:12:42;;;;;;;4.90;3.30;;;26.00;78.40;;;;;;5066538;28;20396;-81
2021/06/07 11:15:14;;;;;;;6.40;3.60;;;26.10;77.20;;;;;;5089590;28;20884;-80
2021/06/07 11:17:40;;;;;;;5.57;3.47;;;26.10;78.90;;;;;;5089411;28;20460;-82
2021/06/07 11:20:07;;;;;;;6.88;3.55;;;26.10;76.70;;;;;;5089293;28;20372;-79
2021/06/07 11:23:04;;;;;;;3.97;3.30;;;26.00;76.50;;;;;;5089034;28;20429;-78
2021/06/07 11:25:30;;;;;;;6.55;3.40;;;25.80;77.30;;;;;;5089059;28;20475;-82
2021/06/07 11:27:56;;;;;;;5.05;3.00;;;25.90;78.70;;;;;;5089353;28;20396;-83
2021/06/07 11:30:22;;;;;;;5.80;3.13;;;26.00;79.20;;;;;;5088917;28;20391;-79
2021/06/07 11:32:49;;;;;;;4.07;3.22;;;26.20;75.80;;;;;;5089521;28;20779;-83
2021/06/07 11:35:40;;;;;;;5.45;3.35;;;26.20;74.70;;;;;;5088876;28;20423;-83
2021/06/07 11:38:37;;;;;;;7.82;3.05;;;26.10;76.10;;;;;;5089055;28;20387;-80
2021/06/07 11:41:06;;;;;;;7.05;3.53;;;26.10;78.90;;;;;;5089437;28;20396;-81
2021/06/07 11:43:47;;;;;;;6.03;3.33;;;26.30;79.40;;;;;;5088760;28;20423;-79
2021/06/07 11:46:30;;;;;;;5.90;3.60;;;26.40;77.70;;;;;;5070886;28;20823;-78
2021/06/07 11:49:14;;;;;;;3.63;3.20;;;26.40;77.30;;;;;;5088983;28;20372;-79
2021/06/07 11:51:41;;;;;;;5.28;3.00;;;26.50;75.50;;;;;;5088884;28;20381;-79
2021/06/07 11:54:25;;;;;;;5.10;3.22;;;26.40;76.30;;;;;;5088935;28;20384;-80
2021/06/07 11:56:59;;;;;;;4.97;3.25;;;26.60;76.30;;;;;;5099421;28;20405;-81
2021/06/07 11:59:30;;;;;;;3.60;2.97;;;26.80;75.00;;;;;;5091554;28;20386;-81
2021/06/07 12:01:57;;;;;;;5.83;3.20;;;26.80;71.70;;;;;;5106128;28;20744;-81
2021/06/07 12:04:32;;;;;;;4.70;2.88;;;26.70;73.20;;;;;;5065663;28;20571;-83
2021/06/07 12:07:06;;;;;;;5.57;3.13;;;26.70;71.90;;;;;;5081994;28;20392;-80
2021/06/07 12:09:33;;;;;;;5.43;3.47;;;26.60;73.00;;;;;;5076398;28;20384;-79
2021/06/07 12:11:59;;;;;;;5.75;3.42;;;26.60;72.70;;;;;;5080399;28;20420;-80
2021/06/07 12:14:32;;;;;;;6.55;3.33;;;26.40;73.50;;;;;;5075301;28;20413;-82
2021/06/07 12:17:05;;;;;;;5.60;3.28;;;26.30;75.00;;;;;;5084271;28;20459;-83
2021/06/07 12:19:40;;;;;;;5.18;3.10;;;26.50;75.80;;;;;;5083569;28;20471;-81
2021/06/07 12:22:25;;;;;;;4.65;3.30;;;26.30;73.60;;;;;;5082322;28;20422;-78
2021/06/07 12:25:14;;;;;;;3.85;3.13;;;26.30;75.50;;;;;;5085868;28;20476;-78
2021/06/07 12:30:25;;;;;;;7.97;3.60;;;26.70;77.70;;;;;;5085740;28;20915;-80
2021/06/07 12:32:53;;;;;;;4.22;3.05;;;27.00;73.30;;;;;;5084735;28;20392;-80
2021/06/07 12:35:23;;;;;;;3.60;3.00;;;26.90;72.70;;;;;;5081268;28;20864;-82
2021/06/07 12:37:54;;;;;;;8.55;3.35;;;26.70;71.60;;;;;;5072149;28;20482;-78
2021/06/07 12:40:41;;;;;;;4.30;2.97;;;26.40;72.10;;;;;;5077179;28;20869;-79
2021/06/07 12:43:06;;;;;;;5.57;3.15;;;26.40;72.90;;;;;;5076021;28;20393;-80
2021/06/07 12:45:48;;;;;;;5.13;3.38;;;26.20;74.60;;;;;;5075225;28;20386;-83
2021/06/07 12:48:18;;;;;;;6.28;3.67;;;26.40;75.20;;;;;;5071416;28;20492;-81
2021/06/07 12:50:47;;;;;;;6.10;3.15;;;26.60;73.30;;;;;;5084563;28;20466;-79
2021/06/07 12:53:14;;;;;;;5.05;3.20;;;26.60;73.00;;;;;;5077778;28;20457;-80
2021/06/07 12:55:41;;;;;;;3.92;3.22;;;26.60;74.50;;;;;;5079051;28;20400;-81
2021/06/07 12:58:14;;;;;;;4.30;3.05;;;26.60;72.70;;;;;;5064133;28;20380;-77
2021/06/07 13:00:48;;;;;;;4.97;3.10;;;26.70;74.80;;;;;;5074723;28;20385;-79
2021/06/07 13:03:22;;;;;;;6.60;3.42;;;26.80;74.80;;;;;;5080351;28;20396;-79
2021/06/07 13:05:58;;;;;;;5.18;3.10;;;26.90;71.80;;;;;;5082879;28;20392;-80
2021/06/07 13:08:24;;;;;;;7.40;3.25;;;26.90;74.30;;;;;;5081963;28;20400;-78
2021/06/07 13:10:59;;;;;;;6.33;3.20;;;26.90;75.20;;;;;;5082851;28;20862;-81
2021/06/07 13:13:46;;;;;;;10.15;3.28;;;26.90;75.40;;;;;;5084476;28;20418;-79
2021/06/07 13:16:14;;;;;;;6.18;3.30;;;26.90;76.10;;;;;;5085225;28;20921;-79
2021/06/07 13:19:06;;;;;;;3.92;3.30;;;27.00;74.40;;;;;;5085480;28;20730;-80
2021/06/07 13:21:47;;;;;;;6.38;3.55;;;27.20;74.50;;;;;;5084024;28;20424;-81
2021/06/07 13:24:26;;;;;;;3.90;3.28;;;27.20;72.30;;;;;;5084971;28;20846;-80
2021/06/07 13:26:58;;;;;;;8.25;3.40;;;27.20;72.10;;;;;;5084813;28;20411;-79
2021/06/07 13:29:43;;;;;;;5.50;3.10;;;27.00;72.00;;;;;;5065881;28;20483;-79
2021/06/07 13:32:10;;;;;;;6.73;3.33;;;27.10;71.40;;;;;;5086569;28;20843;-80
2021/06/07 13:34:45;;;;;;;5.53;3.03;;;27.10;73.20;;;;;;5087469;28;20427;-83
2021/06/07 13:37:21;;;;;;;5.90;3.25;;;27.20;73.20;;;;;;5084274;28;20882;-80
2021/06/07 13:40:25;;;;;;;5.95;3.13;;;27.50;71.30;;;;;;5087131;28;20442;-81
2021/06/07 13:42:57;;;;;;;12.43;3.10;;;27.70;72.00;;;;;;5086560;28;20388;-79
2021/06/07 13:45:33;;;;;;;5.57;3.30;;;27.70;70.30;;;;;;5085724;28;20384;-79
2021/06/07 13:48:04;;;;;;;6.35;3.45;;;27.60;70.80;;;;;;5084294;28;20408;-81
2021/06/07 13:50:42;;;;;;;3.95;3.25;;;27.60;71.40;;;;;;5089291;28;20391;-80
2021/06/07 13:53:09;;;;;;;4.88;3.20;;;27.50;70.30;;;;;;5090144;28;20380;-79
2021/06/07 13:55:35;;;;;;;7.50;3.30;;;27.50;71.60;;;;;;5090429;28;20506;-80
2021/06/07 13:58:14;;;;;;;3.97;3.42;;;27.50;71.20;;;;;;5081964;28;20426;-79
2021/06/07 14:00:48;;;;;;;5.63;3.17;;;27.60;69.80;;;;;;5101152;28;20362;-81
2021/06/07 14:03:16;;;;;;;3.90;2.90;;;27.70;73.10;;;;;;5102112;28;20375;-81
2021/06/07 14:05:42;;;;;;;5.22;2.92;;;27.80;68.80;;;;;;5080234;28;20459;-82
2021/06/07 14:08:11;;;;;;;5.65;3.22;;;27.80;70.60;;;;;;5071698;28;20462;-81
2021/06/07 14:10:37;;;;;;;4.10;3.10;;;27.70;69.60;;;;;;5071831;28;20894;-79